Time;durP1;ratioP1;P1;durP2;ratioP2;P2;SDS_P1;SDS_P2;PMS_P1;PMS_P2;Temp;Humidity;BMP_temperature;BMP_pressure;BME280_temperature;BME280_humidity;BME280_pressure;Samples;Min_cycle;Max_cycle;Signal;HPM_P1;HPM_P2
2021/09/24 00:00:53;;;;;;;;;20.25;18.25;;;;;;;;4994680;28;45435;-72
2021/09/24 00:03:18;;;;;;;;;17.00;15.50;;;;;;;;4991817;28;45348;-71
2021/09/24 00:05:44;;;;;;;;;24.50;20.75;;;;;;;;4991643;28;46203;-72
2021/09/24 00:08:09;;;;;;;;;21.25;19.00;;;;;;;;4991945;28;45414;-71
2021/09/24 00:10:34;;;;;;;;;23.25;18.50;;;;;;;;4992657;28;45342;-72
2021/09/24 00:12:59;;;;;;;;;21.25;20.50;;;;;;;;4994592;28;45319;-71
2021/09/24 00:15:24;;;;;;;;;21.75;21.75;;;;;;;;4990746;28;47037;-71
2021/09/24 00:17:50;;;;;;;;;24.50;24.25;;;;;;;;4990796;28;45532;-71
2021/09/24 00:20:15;;;;;;;;;22.00;19.50;;;;;;;;4992490;28;45408;-71
2021/09/24 00:22:41;;;;;;;;;23.50;22.00;;;;;;;;4992517;28;45343;-71
2021/09/24 00:25:06;;;;;;;;;26.50;25.25;;;;;;;;4994462;28;46290;-72
2021/09/24 00:27:31;;;;;;;;;22.00;21.00;;;;;;;;4992585;28;45407;-72
2021/09/24 00:29:57;;;;;;;;;27.00;23.50;;;;;;;;4992070;28;45390;-71
2021/09/24 00:32:22;;;;;;;;;25.00;19.50;;;;;;;;4992308;28;45431;-71
2021/09/24 00:34:48;;;;;;;;;17.25;17.25;;;;;;;;4992200;28;46483;-71
2021/09/24 00:37:13;;;;;;;;;24.75;22.50;;;;;;;;4992726;28;45508;-72
2021/09/24 00:39:38;;;;;;;;;22.00;17.00;;;;;;;;4993504;28;45475;-72
2021/09/24 00:42:04;;;;;;;;;26.00;23.25;;;;;;;;4992057;28;45385;-71
2021/09/24 00:44:39;;;;;;;;;25.50;24.00;;;;;;;;4991826;28;46253;-72
2021/09/24 00:47:05;;;;;;;;;20.75;20.25;;;;;;;;4991722;28;45478;-72
2021/09/24 00:49:30;;;;;;;;;21.75;18.25;;;;;;;;4991589;28;45405;-71
2021/09/24 00:51:55;;;;;;;;;20.75;20.50;;;;;;;;4993468;28;45370;-71
2021/09/24 00:54:20;;;;;;;;;20.50;20.00;;;;;;;;4972020;28;48514;-71
2021/09/24 00:56:46;;;;;;;;;22.75;17.75;;;;;;;;4990256;28;45544;-72
2021/09/24 00:59:11;;;;;;;;;22.50;20.75;;;;;;;;4991790;28;45446;-71
2021/09/24 01:01:36;;;;;;;;;20.00;20.00;;;;;;;;4974115;28;45300;-71
2021/09/24 01:04:01;;;;;;;;;15.75;14.75;;;;;;;;4993997;28;46274;-70
2021/09/24 01:06:26;;;;;;;;;17.75;17.00;;;;;;;;4993279;28;45414;-71
2021/09/24 01:08:52;;;;;;;;;16.25;12.50;;;;;;;;4992418;28;45457;-71
2021/09/24 01:11:17;;;;;;;;;15.50;14.25;;;;;;;;4992736;28;45505;-71
2021/09/24 01:13:43;;;;;;;;;16.50;14.25;;;;;;;;4992070;28;46257;-71
2021/09/24 01:16:08;;;;;;;;;15.75;14.75;;;;;;;;4991880;28;45318;-72
2021/09/24 01:18:33;;;;;;;;;14.50;13.50;;;;;;;;4992490;28;45778;-73
2021/09/24 01:20:58;;;;;;;;;12.50;10.25;;;;;;;;4973526;28;45565;-73
2021/09/24 01:23:24;;;;;;;;;18.00;15.25;;;;;;;;4991481;28;46433;-70
2021/09/24 01:25:49;;;;;;;;;18.00;15.75;;;;;;;;4991705;28;45562;-80
2021/09/24 01:28:14;;;;;;;;;14.25;11.75;;;;;;;;4992642;28;45439;-81
2021/09/24 01:30:40;;;;;;;;;15.00;13.25;;;;;;;;4993031;28;45496;-81
2021/09/24 01:33:05;;;;;;;;;14.00;13.00;;;;;;;;4990092;28;45486;-81
2021/09/24 01:35:30;;;;;;;;;10.75;8.00;;;;;;;;4989933;28;45438;-81
2021/09/24 01:37:55;;;;;;;;;9.75;8.75;;;;;;;;4991908;28;45510;-81
2021/09/24 01:40:20;;;;;;;;;10.25;9.25;;;;;;;;4991528;28;45410;-81
2021/09/24 01:42:50;;;;;;;;;8.00;8.00;;;;;;;;4993631;28;45452;-81
2021/09/24 01:45:15;;;;;;;;;12.75;11.75;;;;;;;;4986281;28;45244;-81
2021/09/24 01:47:41;;;;;;;;;10.50;9.50;;;;;;;;4991653;28;45287;-80
2021/09/24 01:50:07;;;;;;;;;11.75;10.75;;;;;;;;4989328;28;45361;-81
2021/09/24 01:52:34;;;;;;;;;12.50;11.50;;;;;;;;4974180;28;46476;-81
2021/09/24 01:54:59;;;;;;;;;16.25;12.50;;;;;;;;4993338;28;45551;-80
2021/09/24 01:57:24;;;;;;;;;14.00;11.75;;;;;;;;4997017;28;45603;-80
2021/09/24 01:59:50;;;;;;;;;9.50;9.50;;;;;;;;4998635;28;45319;-79
2021/09/24 02:02:15;;;;;;;;;11.25;11.00;;;;;;;;4995556;28;45653;-81
2021/09/24 02:04:41;;;;;;;;;9.00;9.00;;;;;;;;4996893;28;45511;-80
2021/09/24 02:07:06;;;;;;;;;8.50;7.75;;;;;;;;4995823;28;45488;-80
2021/09/24 02:09:32;;;;;;;;;8.00;7.00;;;;;;;;4991736;28;45461;-80
2021/09/24 02:11:57;;;;;;;;;9.00;7.50;;;;;;;;4989663;28;46938;-79
2021/09/24 02:14:22;;;;;;;;;5.75;5.00;;;;;;;;4989578;28;45536;-79
2021/09/24 02:16:48;;;;;;;;;6.00;4.00;;;;;;;;4991279;28;45545;-79
2021/09/24 02:19:13;;;;;;;;;8.25;8.25;;;;;;;;4991696;28;45318;-80
2021/09/24 02:21:38;;;;;;;;;9.50;8.25;;;;;;;;4991747;28;47060;-80
2021/09/24 02:24:03;;;;;;;;;12.75;9.25;;;;;;;;4991079;28;45277;-79
2021/09/24 02:26:28;;;;;;;;;15.25;11.50;;;;;;;;4990660;28;45325;-79
2021/09/24 02:28:54;;;;;;;;;9.00;7.25;;;;;;;;4990801;28;45443;-80
2021/09/24 02:31:19;;;;;;;;;8.75;7.75;;;;;;;;4990285;28;45494;-80
2021/09/24 02:33:44;;;;;;;;;9.75;7.00;;;;;;;;4990452;28;45416;-80
2021/09/24 02:36:09;;;;;;;;;8.25;7.00;;;;;;;;4990793;28;45339;-80
2021/09/24 02:38:35;;;;;;;;;9.00;7.25;;;;;;;;4990537;28;45502;-81
2021/09/24 02:41:01;;;;;;;;;7.50;4.75;;;;;;;;4990663;28;45717;-81
2021/09/24 02:43:26;;;;;;;;;6.25;5.75;;;;;;;;4994781;28;45387;-79
2021/09/24 02:45:52;;;;;;;;;6.25;6.25;;;;;;;;4982883;28;45710;-81
2021/09/24 02:48:17;;;;;;;;;4.00;4.00;;;;;;;;4997598;28;45558;-80
2021/09/24 02:50:42;;;;;;;;;8.25;8.00;;;;;;;;4989232;28;47152;-80
2021/09/24 02:53:08;;;;;;;;;8.75;8.75;;;;;;;;4989101;28;45492;-79
2021/09/24 02:55:33;;;;;;;;;7.25;7.25;;;;;;;;4990315;28;45327;-79
2021/09/24 02:57:58;;;;;;;;;9.25;6.25;;;;;;;;4992362;28;45551;-79
2021/09/24 03:00:25;;;;;;;;;9.00;7.25;;;;;;;;4989826;28;45668;-79
2021/09/24 03:02:51;;;;;;;;;5.25;5.25;;;;;;;;4989865;28;45406;-81
2021/09/24 03:05:16;;;;;;;;;9.00;7.25;;;;;;;;4990353;28;45430;-81
2021/09/24 03:07:41;;;;;;;;;9.75;8.25;;;;;;;;4988715;28;45454;-80
2021/09/24 03:10:07;;;;;;;;;5.75;5.75;;;;;;;;4991484;28;45933;-80
2021/09/24 03:12:32;;;;;;;;;10.75;8.00;;;;;;;;4990755;28;45511;-80
2021/09/24 03:14:58;;;;;;;;;10.25;7.00;;;;;;;;4990301;28;45423;-81
2021/09/24 03:17:23;;;;;;;;;9.50;8.00;;;;;;;;4989882;28;45131;-80
2021/09/24 03:19:48;;;;;;;;;11.25;7.25;;;;;;;;4990150;28;46086;-80
2021/09/24 03:22:13;;;;;;;;;9.00;9.00;;;;;;;;4991035;28;45271;-80
2021/09/24 03:24:40;;;;;;;;;8.00;7.75;;;;;;;;4973788;28;45537;-80
2021/09/24 03:27:06;;;;;;;;;8.25;7.50;;;;;;;;4990289;28;45527;-80
2021/09/24 03:29:31;;;;;;;;;6.75;6.75;;;;;;;;4987831;28;46123;-80
2021/09/24 03:31:56;;;;;;;;;8.25;8.25;;;;;;;;4988336;28;45816;-81
2021/09/24 03:34:21;;;;;;;;;13.25;9.00;;;;;;;;4991199;28;45419;-81
2021/09/24 03:36:46;;;;;;;;;9.25;8.00;;;;;;;;4999985;28;45387;-81
2021/09/24 03:39:13;;;;;;;;;6.00;6.00;;;;;;;;4996801;28;46031;-81
2021/09/24 03:41:39;;;;;;;;;6.50;6.50;;;;;;;;4992665;28;45296;-81
2021/09/24 03:44:04;;;;;;;;;10.25;8.00;;;;;;;;4992632;28;45494;-81
2021/09/24 03:46:30;;;;;;;;;7.00;6.50;;;;;;;;4992071;28;45447;-81
2021/09/24 03:48:55;;;;;;;;;10.00;8.25;;;;;;;;4994238;28;46417;-81
2021/09/24 03:51:20;;;;;;;;;9.00;8.00;;;;;;;;4992364;28;45397;-81
2021/09/24 03:53:45;;;;;;;;;11.25;10.25;;;;;;;;4992772;28;45419;-81
2021/09/24 03:56:10;;;;;;;;;6.75;6.75;;;;;;;;4992558;28;45439;-80
2021/09/24 03:58:36;;;;;;;;;10.75;9.25;;;;;;;;4992355;28;46269;-80
2021/09/24 04:01:01;;;;;;;;;9.75;8.50;;;;;;;;4994082;28;45510;-79
2021/09/24 04:03:28;;;;;;;;;10.50;9.75;;;;;;;;4991476;28;45368;-80
2021/09/24 04:05:53;;;;;;;;;10.75;10.75;;;;;;;;4992269;28;45468;-80
2021/09/24 04:08:18;;;;;;;;;15.50;11.25;;;;;;;;4992107;28;45453;-79
2021/09/24 04:10:43;;;;;;;;;15.75;14.75;;;;;;;;4991467;28;45414;-81
2021/09/24 04:13:09;;;;;;;;;12.50;10.00;;;;;;;;4994219;28;45616;-80
2021/09/24 04:15:34;;;;;;;;;18.25;15.25;;;;;;;;4974716;28;45338;-80
2021/09/24 04:17:59;;;;;;;;;12.25;10.25;;;;;;;;4992245;28;45673;-80
2021/09/24 04:20:24;;;;;;;;;20.25;14.00;;;;;;;;4992802;28;45430;-81
2021/09/24 04:22:50;;;;;;;;;12.00;11.25;;;;;;;;4991911;28;45566;-81
2021/09/24 04:25:15;;;;;;;;;12.25;10.50;;;;;;;;4997182;28;45328;-81
2021/09/24 04:27:40;;;;;;;;;8.25;8.25;;;;;;;;5000800;28;45411;-79
2021/09/24 04:30:07;;;;;;;;;10.75;9.75;;;;;;;;4993080;28;45430;-80
2021/09/24 04:32:32;;;;;;;;;12.50;10.00;;;;;;;;4994574;28;45288;-80
2021/09/24 04:34:57;;;;;;;;;15.50;10.50;;;;;;;;4992054;28;45551;-80
2021/09/24 04:37:22;;;;;;;;;14.75;14.00;;;;;;;;4992000;28;46137;-80
2021/09/24 04:39:48;;;;;;;;;18.50;18.50;;;;;;;;4993485;28;45488;-79
2021/09/24 04:42:13;;;;;;;;;8.25;6.00;;;;;;;;4991551;28;45497;-79
2021/09/24 04:44:39;;;;;;;;;16.75;15.75;;;;;;;;4973433;28;45417;-79
2021/09/24 04:47:05;;;;;;;;;19.75;14.75;;;;;;;;4989873;28;46063;-79
2021/09/24 04:49:30;;;;;;;;;22.50;19.50;;;;;;;;4973219;28;45500;-79
2021/09/24 04:51:55;;;;;;;;;13.50;13.00;;;;;;;;4993101;28;45312;-81
2021/09/24 04:54:20;;;;;;;;;13.25;13.25;;;;;;;;4991599;28;45501;-80
2021/09/24 04:56:46;;;;;;;;;13.75;11.75;;;;;;;;4991385;28;45521;-81
2021/09/24 04:59:11;;;;;;;;;10.50;10.50;;;;;;;;4991233;28;45704;-81
2021/09/24 05:01:36;;;;;;;;;12.75;11.75;;;;;;;;4990879;28;45431;-81
2021/09/24 05:04:02;;;;;;;;;6.00;5.00;;;;;;;;4994090;28;45275;-81
2021/09/24 05:06:28;;;;;;;;;5.00;3.75;;;;;;;;4991437;28;45291;-80
2021/09/24 05:08:53;;;;;;;;;6.75;3.75;;;;;;;;4990839;28;45219;-81
2021/09/24 05:11:18;;;;;;;;;2.50;2.50;;;;;;;;4989748;28;45420;-80
2021/09/24 05:13:43;;;;;;;;;4.75;3.75;;;;;;;;4994371;28;45402;-80
2021/09/24 05:16:09;;;;;;;;;8.25;8.25;;;;;;;;4999549;28;46385;-82
2021/09/24 05:18:34;;;;;;;;;6.00;6.00;;;;;;;;4993257;28;45249;-81
2021/09/24 05:20:59;;;;;;;;;8.75;4.50;;;;;;;;4991179;28;45293;-81
2021/09/24 05:23:24;;;;;;;;;9.50;6.50;;;;;;;;4989658;28;45714;-82
2021/09/24 05:25:50;;;;;;;;;5.75;5.75;;;;;;;;4988701;28;46268;-81
2021/09/24 05:28:15;;;;;;;;;6.25;3.50;;;;;;;;4991365;28;45470;-73
2021/09/24 05:30:40;;;;;;;;;3.50;3.50;;;;;;;;4992085;28;45464;-73
2021/09/24 05:33:05;;;;;;;;;7.75;5.00;;;;;;;;4990024;28;45289;-72
2021/09/24 05:35:30;;;;;;;;;6.25;4.00;;;;;;;;4990020;28;45348;-72
2021/09/24 05:37:56;;;;;;;;;5.50;5.25;;;;;;;;4990555;28;45287;-72
2021/09/24 05:40:22;;;;;;;;;6.25;5.50;;;;;;;;4990026;28;45318;-72
2021/09/24 05:42:47;;;;;;;;;5.50;4.50;;;;;;;;4992207;28;45348;-74
2021/09/24 05:45:14;;;;;;;;;7.50;6.50;;;;;;;;4989233;28;45517;-73
2021/09/24 05:47:40;;;;;;;;;7.75;4.00;;;;;;;;4989446;28;45342;-74
2021/09/24 05:50:11;;;;;;;;;5.75;3.50;;;;;;;;4990068;28;45462;-71
2021/09/24 05:52:37;;;;;;;;;3.75;3.00;;;;;;;;4974886;28;45541;-70
2021/09/24 05:55:02;;;;;;;;;5.00;4.00;;;;;;;;4973788;28;47377;-71
2021/09/24 05:57:27;;;;;;;;;4.00;3.00;;;;;;;;4989358;28;45383;-71
2021/09/24 05:59:53;;;;;;;;;7.00;6.00;;;;;;;;4990061;28;45365;-69
2021/09/24 06:02:18;;;;;;;;;6.75;6.50;;;;;;;;4989228;28;45369;-71
2021/09/24 06:04:43;;;;;;;;;8.50;7.00;;;;;;;;4988165;28;46166;-70
2021/09/24 06:07:08;;;;;;;;;10.25;8.25;;;;;;;;4991488;28;45568;-71
2021/09/24 06:09:33;;;;;;;;;7.75;7.00;;;;;;;;4989083;28;45393;-72
2021/09/24 06:11:59;;;;;;;;;9.00;7.25;;;;;;;;4986642;28;45399;-72
2021/09/24 06:14:24;;;;;;;;;8.00;7.75;;;;;;;;4988962;28;45710;-73
2021/09/24 06:16:49;;;;;;;;;7.00;7.00;;;;;;;;4989353;28;45553;-71
2021/09/24 06:19:14;;;;;;;;;9.00;9.00;;;;;;;;4988698;28;45302;-72
2021/09/24 06:21:40;;;;;;;;;9.75;7.75;;;;;;;;4989454;28;45555;-73
2021/09/24 06:24:06;;;;;;;;;8.00;8.00;;;;;;;;4987680;28;46002;-73
2021/09/24 06:26:31;;;;;;;;;6.75;5.50;;;;;;;;4987832;28;45673;-72
2021/09/24 06:28:56;;;;;;;;;11.50;11.50;;;;;;;;4988499;28;45389;-72
2021/09/24 06:31:22;;;;;;;;;18.75;15.00;;;;;;;;4985868;28;45364;-72
2021/09/24 06:33:47;;;;;;;;;15.25;12.00;;;;;;;;4990228;28;46023;-74
2021/09/24 06:36:17;;;;;;;;;19.00;16.00;;;;;;;;4986976;28;45483;-72
2021/09/24 06:38:43;;;;;;;;;14.25;10.50;;;;;;;;4989651;28;45433;-73
2021/09/24 06:41:08;;;;;;;;;12.75;12.75;;;;;;;;4987837;28;45361;-71
2021/09/24 06:43:33;;;;;;;;;9.25;8.25;;;;;;;;4987519;28;46000;-73
2021/09/24 06:45:58;;;;;;;;;15.00;11.50;;;;;;;;4989858;28;45484;-72
2021/09/24 06:48:23;;;;;;;;;13.50;12.00;;;;;;;;4986772;28;45543;-72
2021/09/24 06:50:49;;;;;;;;;15.25;14.25;;;;;;;;4988903;28;45538;-73
2021/09/24 06:53:14;;;;;;;;;16.75;15.50;;;;;;;;4988698;28;46244;-72
2021/09/24 06:55:39;;;;;;;;;14.25;13.00;;;;;;;;4987617;28;45466;-73
2021/09/24 06:58:04;;;;;;;;;12.00;9.00;;;;;;;;4989846;28;45359;-74
2021/09/24 07:00:30;;;;;;;;;13.00;12.25;;;;;;;;4987822;28;45516;-73
2021/09/24 07:02:55;;;;;;;;;11.00;11.00;;;;;;;;4988274;28;46235;-73
2021/09/24 07:05:20;;;;;;;;;12.50;12.50;;;;;;;;4987837;28;45539;-73
2021/09/24 07:07:45;;;;;;;;;13.50;12.00;;;;;;;;4987877;28;45478;-71
2021/09/24 07:10:11;;;;;;;;;15.25;13.75;;;;;;;;4989213;28;45401;-72
2021/09/24 07:12:36;;;;;;;;;12.75;11.50;;;;;;;;4989223;28;45546;-71
2021/09/24 07:15:02;;;;;;;;;11.00;10.00;;;;;;;;4990680;28;45335;-72
2021/09/24 07:17:27;;;;;;;;;12.00;11.00;;;;;;;;4991074;28;45492;-72
2021/09/24 07:19:52;;;;;;;;;16.25;11.25;;;;;;;;4990762;28;45561;-72
2021/09/24 07:22:18;;;;;;;;;19.50;15.50;;;;;;;;4992061;28;45565;-73
2021/09/24 07:24:43;;;;;;;;;13.25;11.75;;;;;;;;4992650;27;46106;-72
2021/09/24 07:27:08;;;;;;;;;12.50;10.75;;;;;;;;4989900;28;45480;-72
2021/09/24 07:29:33;;;;;;;;;12.25;12.25;;;;;;;;4992098;28;45463;-72
2021/09/24 07:31:59;;;;;;;;;16.75;11.75;;;;;;;;4991196;28;46217;-72
2021/09/24 07:34:24;;;;;;;;;12.00;11.25;;;;;;;;4991005;28;45415;-73
2021/09/24 07:36:49;;;;;;;;;21.00;14.50;;;;;;;;4993296;28;45276;-72
2021/09/24 07:39:15;;;;;;;;;15.25;13.25;;;;;;;;4991005;28;45570;-72
2021/09/24 07:41:40;;;;;;;;;12.75;11.50;;;;;;;;4987663;28;46357;-72
2021/09/24 07:44:05;;;;;;;;;16.00;14.75;;;;;;;;4990175;27;46897;-71
2021/09/24 07:46:31;;;;;;;;;13.25;10.75;;;;;;;;4990046;28;45364;-71
2021/09/24 07:48:57;;;;;;;;;13.00;11.50;;;;;;;;4992354;28;45407;-72
2021/09/24 07:51:22;;;;;;;;;17.00;16.25;;;;;;;;4990671;28;46023;-71
2021/09/24 07:53:47;;;;;;;;;14.00;12.25;;;;;;;;4989700;28;45370;-72
2021/09/24 07:56:13;;;;;;;;;11.25;10.50;;;;;;;;4989659;28;45326;-70
2021/09/24 07:58:38;;;;;;;;;11.25;9.50;;;;;;;;4991373;27;46254;-72
2021/09/24 08:01:04;;;;;;;;;16.75;15.00;;;;;;;;4992517;28;46003;-71
2021/09/24 08:03:30;;;;;;;;;12.75;12.00;;;;;;;;4989399;28;45577;-72
2021/09/24 08:05:55;;;;;;;;;8.00;7.25;;;;;;;;4988748;28;45333;-72
2021/09/24 08:08:20;;;;;;;;;12.00;9.50;;;;;;;;4989556;28;45414;-72
2021/09/24 08:10:45;;;;;;;;;7.00;5.75;;;;;;;;4990313;28;46299;-72
2021/09/24 08:13:10;;;;;;;;;7.50;6.25;;;;;;;;4990178;27;45416;-72
2021/09/24 08:15:42;;;;;;;;;7.25;6.25;;;;;;;;4991283;28;45406;-72
2021/09/24 08:18:07;;;;;;;;;10.25;7.50;;;;;;;;4989435;28;45510;-71
2021/09/24 08:20:32;;;;;;;;;11.75;10.75;;;;;;;;4990479;28;46160;-72
2021/09/24 08:22:57;;;;;;;;;10.75;8.00;;;;;;;;4990622;28;47699;-71
2021/09/24 08:25:22;;;;;;;;;12.50;12.50;;;;;;;;4990174;28;45363;-71
2021/09/24 08:27:48;;;;;;;;;9.25;7.25;;;;;;;;4991822;28;45678;-71
2021/09/24 08:30:15;;;;;;;;;12.75;7.50;;;;;;;;4990412;28;45650;-71
2021/09/24 08:32:40;;;;;;;;;11.25;7.50;;;;;;;;4989690;28;45347;-71
2021/09/24 08:35:10;;;;;;;;;7.25;6.50;;;;;;;;4990101;28;45419;-71
2021/09/24 08:37:35;;;;;;;;;11.25;9.75;;;;;;;;4974464;28;45465;-71
2021/09/24 08:40:01;;;;;;;;;10.50;7.75;;;;;;;;4989866;28;46046;-71
2021/09/24 08:42:26;;;;;;;;;14.00;11.75;;;;;;;;4989104;28;45273;-72
2021/09/24 08:44:52;;;;;;;;;20.00;18.75;;;;;;;;4988086;28;45470;-71
2021/09/24 08:47:18;;;;;;;;;20.25;16.75;;;;;;;;4989792;28;45457;-72
2021/09/24 08:49:44;;;;;;;;;22.25;19.25;;;;;;;;4989148;28;45449;-71
2021/09/24 08:52:09;;;;;;;;;16.75;15.75;;;;;;;;4989443;28;45330;-69
2021/09/24 08:54:34;;;;;;;;;28.25;22.75;;;;;;;;4991178;28;47081;-70
2021/09/24 08:57:00;;;;;;;;;29.75;25.25;;;;;;;;4990767;28;45462;-68
2021/09/24 08:59:25;;;;;;;;;32.25;30.00;;;;;;;;4987534;28;47036;-69
2021/09/24 09:02:00;;;;;;;;;38.25;33.00;;;;;;;;4989892;28;45410;-68
2021/09/24 09:04:36;;;;;;;;;35.75;32.75;;;;;;;;4989861;28;45512;-68
2021/09/24 09:07:02;;;;;;;;;31.50;28.75;;;;;;;;4988323;28;45485;-70
2021/09/24 09:09:31;;;;;;;;;25.00;23.50;;;;;;;;4990183;28;47123;-69
2021/09/24 09:11:57;;;;;;;;;27.00;24.00;;;;;;;;4989599;28;45364;-68
2021/09/24 09:14:23;;;;;;;;;18.50;16.75;;;;;;;;4990017;27;45465;-70
2021/09/24 09:16:48;;;;;;;;;23.00;21.00;;;;;;;;4991115;28;45455;-69
2021/09/24 09:19:17;;;;;;;;;18.50;15.00;;;;;;;;4988817;28;46428;-71
2021/09/24 09:21:45;;;;;;;;;24.25;18.75;;;;;;;;4989086;28;45581;-70
2021/09/24 09:24:17;;;;;;;;;19.75;16.00;;;;;;;;4988481;28;45519;-71
2021/09/24 09:26:42;;;;;;;;;22.25;18.00;;;;;;;;4989265;28;45346;-70
2021/09/24 09:29:09;;;;;;;;;22.75;17.75;;;;;;;;4989672;28;46290;-71
2021/09/24 09:31:34;;;;;;;;;21.00;20.00;;;;;;;;4974343;28;45549;-71
2021/09/24 09:34:04;;;;;;;;;21.50;18.25;;;;;;;;4991216;28;45298;-71
2021/09/24 09:36:31;;;;;;;;;22.25;21.25;;;;;;;;4989007;28;45279;-71
2021/09/24 09:38:57;;;;;;;;;18.75;17.25;;;;;;;;4988582;28;45531;-71
2021/09/24 09:41:23;;;;;;;;;25.75;21.25;;;;;;;;4988450;28;45500;-72
2021/09/24 09:43:51;;;;;;;;;20.00;17.25;;;;;;;;4988982;28;45502;-72
2021/09/24 09:46:20;;;;;;;;;17.75;15.75;;;;;;;;4991854;28;45320;-71
2021/09/24 09:48:59;;;;;;;;;13.00;10.00;;;;;;;;4988292;28;46056;-71
2021/09/24 09:51:24;;;;;;;;;17.00;15.00;;;;;;;;4989783;28;45467;-72
2021/09/24 09:53:49;;;;;;;;;18.25;16.50;;;;;;;;4990066;28;45398;-72
2021/09/24 09:56:18;;;;;;;;;19.25;17.25;;;;;;;;4989555;28;45546;-72
2021/09/24 09:58:43;;;;;;;;;14.75;11.75;;;;;;;;4987898;28;47199;-72
2021/09/24 10:01:15;;;;;;;;;12.75;12.75;;;;;;;;4972977;28;45760;-73
2021/09/24 10:03:48;;;;;;;;;16.25;12.50;;;;;;;;4992280;27;45611;-73
2021/09/24 10:06:24;;;;;;;;;13.00;9.25;;;;;;;;4983565;28;45406;-72
2021/09/24 10:08:50;;;;;;;;;9.50;8.25;;;;;;;;4988536;28;46096;-72
2021/09/24 10:11:19;;;;;;;;;10.25;10.25;;;;;;;;4988618;28;45368;-73
2021/09/24 10:13:50;;;;;;;;;10.50;10.50;;;;;;;;4988143;28;45526;-74
2021/09/24 10:16:15;;;;;;;;;10.00;8.75;;;;;;;;4989059;28;45480;-73
2021/09/24 10:18:41;;;;;;;;;13.25;10.00;;;;;;;;4989026;28;46095;-72
2021/09/24 10:21:06;;;;;;;;;19.50;16.50;;;;;;;;4987938;28;45465;-72
2021/09/24 10:23:31;;;;;;;;;14.25;10.25;;;;;;;;4988825;28;45691;-72
2021/09/24 10:25:58;;;;;;;;;14.00;12.50;;;;;;;;4988744;28;45358;-72
2021/09/24 10:28:27;;;;;;;;;13.25;13.25;;;;;;;;4988690;28;46298;-73
2021/09/24 10:30:53;;;;;;;;;13.50;12.50;;;;;;;;4990793;28;45405;-73
2021/09/24 10:33:18;;;;;;;;;20.50;20.25;;;;;;;;4988065;28;45414;-74
2021/09/24 10:35:45;;;;;;;;;13.00;10.75;;;;;;;;4988024;28;45527;-73
2021/09/24 10:38:10;;;;;;;;;12.25;11.00;;;;;;;;4986668;28;47059;-73
2021/09/24 10:40:35;;;;;;;;;10.75;10.75;;;;;;;;4987266;28;45209;-72
2021/09/24 10:43:12;;;;;;;;;11.50;10.00;;;;;;;;4991143;28;45287;-73
2021/09/24 10:45:40;;;;;;;;;11.25;11.25;;;;;;;;4988962;28;45226;-72
2021/09/24 10:48:07;;;;;;;;;12.00;12.00;;;;;;;;4986955;28;47026;-73
2021/09/24 10:50:33;;;;;;;;;12.75;11.00;;;;;;;;4987827;28;45509;-73
2021/09/24 10:53:10;;;;;;;;;11.00;11.00;;;;;;;;4987941;28;45504;-73
2021/09/24 10:55:38;;;;;;;;;12.75;11.75;;;;;;;;4973152;28;45498;-72
2021/09/24 10:58:04;;;;;;;;;11.25;11.00;;;;;;;;4986429;28;45707;-73
2021/09/24 11:00:31;;;;;;;;;13.00;12.00;;;;;;;;4988656;28;45792;-72
2021/09/24 11:03:14;;;;;;;;;10.50;10.50;;;;;;;;4987488;28;45435;-73
2021/09/24 11:06:09;;;;;;;;;9.50;9.50;;;;;;;;4987649;28;45350;-72
2021/09/24 11:08:37;;;;;;;;;10.00;10.00;;;;;;;;4973814;28;46340;-73
2021/09/24 11:11:03;;;;;;;;;12.75;11.50;;;;;;;;4987660;28;45446;-72
2021/09/24 11:13:28;;;;;;;;;14.50;14.25;;;;;;;;4987351;28;45382;-72
2021/09/24 11:15:57;;;;;;;;;10.25;10.25;;;;;;;;4988934;28;45387;-72
2021/09/24 11:18:43;;;;;;;;;15.00;13.25;;;;;;;;4986552;28;47303;-71
2021/09/24 11:21:08;;;;;;;;;17.75;12.50;;;;;;;;4985794;28;45406;-71
2021/09/24 11:23:35;;;;;;;;;10.50;10.00;;;;;;;;4987738;28;45329;-71
2021/09/24 11:26:08;;;;;;;;;15.75;11.50;;;;;;;;4987699;28;45618;-70
2021/09/24 11:28:33;;;;;;;;;14.00;8.50;;;;;;;;4972056;28;46175;-71
2021/09/24 11:30:59;;;;;;;;;14.00;14.00;;;;;;;;4988951;28;45366;-70
2021/09/24 11:33:41;;;;;;;;;16.00;15.00;;;;;;;;4987920;28;45304;-71
2021/09/24 11:36:06;;;;;;;;;9.75;8.75;;;;;;;;4987933;28;45471;-72
2021/09/24 11:38:32;;;;;;;;;10.75;9.00;;;;;;;;4987825;28;46902;-73
2021/09/24 11:40:57;;;;;;;;;11.67;10.00;;;;;;;;4987932;28;45900;-74
2021/09/24 11:43:31;;;;;;;;;10.00;9.67;;;;;;;;4970131;28;45628;-74
2021/09/24 11:45:58;;;;;;;;;10.33;9.00;;;;;;;;4989420;28;45413;-70
2021/09/24 11:48:28;;;;;;;;;10.00;9.33;;;;;;;;4987212;27;46992;-72
2021/09/24 11:50:54;;;;;;;;;10.33;10.00;;;;;;;;4987416;28;45601;-72
2021/09/24 11:53:19;;;;;;;;;10.00;9.00;;;;;;;;4987670;28;45220;-71
2021/09/24 11:55:45;;;;;;;;;9.33;8.33;;;;;;;;4985928;28;45505;-73
2021/09/24 11:58:13;;;;;;;;;12.00;9.33;;;;;;;;4988373;28;45995;-72
2021/09/24 12:00:41;;;;;;;;;12.67;12.67;;;;;;;;4988096;28;45366;-72
2021/09/24 12:03:17;;;;;;;;;9.33;8.33;;;;;;;;4988778;28;45489;-72
2021/09/24 12:05:56;;;;;;;;;9.67;9.67;;;;;;;;4990569;27;45460;-72
2021/09/24 12:08:24;;;;;;;;;13.00;11.75;;;;;;;;4990633;28;45927;-71
2021/09/24 12:10:57;;;;;;;;;8.33;8.33;;;;;;;;4990666;28;45414;-73
2021/09/24 12:13:22;;;;;;;;;10.67;9.33;;;;;;;;4989848;27;45313;-71
2021/09/24 12:15:52;;;;;;;;;8.50;8.50;;;;;;;;4992421;28;45380;-72
2021/09/24 12:18:17;;;;;;;;;8.00;7.00;;;;;;;;4972168;28;47298;-72
2021/09/24 12:20:43;;;;;;;;;8.67;8.33;;;;;;;;4989459;27;45491;-72
2021/09/24 12:23:09;;;;;;;;;6.50;6.50;;;;;;;;4990590;27;45486;-71
2021/09/24 12:25:34;;;;;;;;;7.50;7.50;;;;;;;;4990639;27;45440;-72
2021/09/24 12:28:09;;;;;;;;;12.00;11.25;;;;;;;;4991465;27;45446;-73
2021/09/24 12:30:39;;;;;;;;;9.00;8.00;;;;;;;;4988347;27;45470;-73
2021/09/24 12:33:14;;;;;;;;;9.67;9.33;;;;;;;;5008760;27;45509;-73
2021/09/24 12:35:40;;;;;;;;;8.00;8.00;;;;;;;;4990003;27;45615;-73
2021/09/24 12:38:22;;;;;;;;;7.25;5.75;;;;;;;;5032941;27;47133;-73
2021/09/24 12:40:47;;;;;;;;;7.00;7.00;;;;;;;;4977027;28;45462;-72
2021/09/24 12:43:13;;;;;;;;;7.75;7.75;;;;;;;;4990650;27;45469;-73
2021/09/24 12:45:38;;;;;;;;;7.50;6.50;;;;;;;;4990227;27;45546;-73
2021/09/24 12:48:10;;;;;;;;;10.25;10.25;;;;;;;;4972386;28;46266;-73
2021/09/24 12:50:37;;;;;;;;;12.00;9.00;;;;;;;;4985953;27;45547;-72
2021/09/24 12:53:02;;;;;;;;;8.75;8.00;;;;;;;;4989447;27;45569;-72
2021/09/24 12:55:28;;;;;;;;;7.50;7.50;;;;;;;;4990252;27;45283;-72
2021/09/24 12:57:53;;;;;;;;;7.00;7.00;;;;;;;;4989053;27;46900;-70
2021/09/24 13:00:19;;;;;;;;;8.25;8.00;;;;;;;;4988016;27;45581;-71
2021/09/24 13:02:46;;;;;;;;;7.75;7.75;;;;;;;;4989852;27;45472;-70
2021/09/24 13:05:13;;;;;;;;;7.00;6.75;;;;;;;;4989320;27;45378;-69
2021/09/24 13:07:42;;;;;;;;;9.50;7.25;;;;;;;;4989896;27;47387;-69
2021/09/24 13:10:10;;;;;;;;;6.75;6.25;;;;;;;;4990578;27;45502;-71
2021/09/24 13:12:36;;;;;;;;;9.75;9.75;;;;;;;;4991082;27;45473;-71
2021/09/24 13:15:06;;;;;;;;;8.00;6.50;;;;;;;;4990350;27;45524;-69
2021/09/24 13:17:31;;;;;;;;;6.50;6.50;;;;;;;;4987867;27;46221;-71
2021/09/24 13:19:56;;;;;;;;;8.25;6.75;;;;;;;;4989501;28;45458;-71
2021/09/24 13:22:21;;;;;;;;;5.25;5.25;;;;;;;;4990482;28;49820;-72
2021/09/24 13:24:47;;;;;;;;;6.75;5.50;;;;;;;;4988883;27;45541;-71
2021/09/24 13:27:12;;;;;;;;;9.00;7.75;;;;;;;;4989481;27;46037;-70
2021/09/24 13:29:37;;;;;;;;;6.50;6.50;;;;;;;;4989837;27;45753;-71
2021/09/24 13:32:03;;;;;;;;;6.50;6.00;;;;;;;;4989660;27;45402;-72
2021/09/24 13:34:29;;;;;;;;;11.75;9.50;;;;;;;;4989940;27;45420;-70
2021/09/24 13:36:55;;;;;;;;;7.00;7.00;;;;;;;;4991712;28;46081;-70
2021/09/24 13:39:20;;;;;;;;;8.50;8.00;;;;;;;;5013275;27;45413;-71
2021/09/24 13:41:45;;;;;;;;;9.25;8.25;;;;;;;;5017578;27;45459;-71
2021/09/24 13:44:11;;;;;;;;;6.50;5.75;;;;;;;;4989731;28;45457;-71
2021/09/24 13:46:36;;;;;;;;;6.00;6.00;;;;;;;;4988929;27;46987;-71
2021/09/24 13:49:01;;;;;;;;;5.75;5.50;;;;;;;;4989022;27;45385;-73
2021/09/24 13:51:26;;;;;;;;;6.50;5.50;;;;;;;;4989369;28;45428;-70
2021/09/24 13:53:52;;;;;;;;;8.25;8.25;;;;;;;;5000728;27;45396;-70
2021/09/24 13:56:17;;;;;;;;;6.50;6.50;;;;;;;;5028700;27;45799;-71
2021/09/24 13:58:42;;;;;;;;;7.25;7.25;;;;;;;;4985544;28;45523;-71
2021/09/24 14:01:08;;;;;;;;;8.50;7.75;;;;;;;;4993915;27;45569;-71
2021/09/24 14:03:33;;;;;;;;;7.25;7.00;;;;;;;;4986378;27;45681;-69
2021/09/24 14:05:59;;;;;;;;;7.25;5.50;;;;;;;;4984606;27;45696;-71
2021/09/24 14:08:24;;;;;;;;;8.25;8.25;;;;;;;;4989458;27;45462;-69
2021/09/24 14:10:49;;;;;;;;;6.25;6.25;;;;;;;;4987801;27;45472;-68
2021/09/24 14:13:15;;;;;;;;;5.50;5.50;;;;;;;;4990037;27;45425;-71
2021/09/24 14:15:40;;;;;;;;;7.00;7.00;;;;;;;;4987878;27;45454;-67
2021/09/24 14:18:05;;;;;;;;;6.00;6.00;;;;;;;;4988860;28;45414;-71
2021/09/24 14:20:31;;;;;;;;;7.75;7.75;;;;;;;;4988732;28;45959;-69
2021/09/24 14:22:56;;;;;;;;;10.25;6.75;;;;;;;;5009302;27;45517;-68